sensor_id;sensor_type;location;lat;lon;timestamp;P1;durP1;ratioP1;P2;durP2;ratioP2
11761;SDS011;5938;47.098;15.474;2023-07-28T00:00:56;3.70;;;3.40;;
11761;SDS011;5938;47.098;15.474;2023-07-28T00:04:59;3.63;;;3.33;;
11761;SDS011;5938;47.098;15.474;2023-07-28T00:09:04;3.50;;;3.10;;
11761;SDS011;5938;47.098;15.474;2023-07-28T00:13:09;3.80;;;3.33;;
11761;SDS011;5938;47.098;15.474;2023-07-28T00:17:12;4.00;;;3.40;;
11761;SDS011;5938;47.098;15.474;2023-07-28T00:21:16;3.53;;;3.23;;
11761;SDS011;5938;47.098;15.474;2023-07-28T00:25:21;3.00;;;2.80;;
11761;SDS011;5938;47.098;15.474;2023-07-28T00:29:24;2.87;;;2.67;;
11761;SDS011;5938;47.098;15.474;2023-07-28T00:33:28;3.33;;;3.03;;
11761;SDS011;5938;47.098;15.474;2023-07-28T00:37:31;3.40;;;3.10;;
11761;SDS011;5938;47.098;15.474;2023-07-28T00:41:36;3.57;;;3.13;;
11761;SDS011;5938;47.098;15.474;2023-07-28T00:45:39;3.87;;;2.90;;
11761;SDS011;5938;47.098;15.474;2023-07-28T00:49:43;3.20;;;2.90;;
11761;SDS011;5938;47.098;15.474;2023-07-28T00:53:48;5.10;;;3.37;;
11761;SDS011;5938;47.098;15.474;2023-07-28T00:57:55;3.13;;;2.67;;
11761;SDS011;5938;47.098;15.474;2023-07-28T01:02:00;3.37;;;3.17;;
11761;SDS011;5938;47.098;15.474;2023-07-28T01:06:08;4.00;;;3.70;;
11761;SDS011;5938;47.098;15.474;2023-07-28T01:10:17;3.47;;;3.07;;
11761;SDS011;5938;47.098;15.474;2023-07-28T01:14:30;3.50;;;3.13;;
11761;SDS011;5938;47.098;15.474;2023-07-28T01:18:34;5.63;;;3.43;;
11761;SDS011;5938;47.098;15.474;2023-07-28T01:22:46;3.30;;;3.00;;
11761;SDS011;5938;47.098;15.474;2023-07-28T01:26:56;3.47;;;2.70;;
11761;SDS011;5938;47.098;15.474;2023-07-28T01:31:00;3.43;;;3.13;;
11761;SDS011;5938;47.098;15.474;2023-07-28T01:35:05;2.97;;;2.67;;
11761;SDS011;5938;47.098;15.474;2023-07-28T01:39:09;4.10;;;3.27;;
11761;SDS011;5938;47.098;15.474;2023-07-28T01:43:14;3.93;;;3.30;;
11761;SDS011;5938;47.098;15.474;2023-07-28T01:47:18;6.30;;;3.90;;
11761;SDS011;5938;47.098;15.474;2023-07-28T01:51:21;3.40;;;3.10;;
11761;SDS011;5938;47.098;15.474;2023-07-28T01:55:25;5.33;;;3.80;;
11761;SDS011;5938;47.098;15.474;2023-07-28T01:59:30;4.20;;;3.60;;
11761;SDS011;5938;47.098;15.474;2023-07-28T02:03:34;7.83;;;3.70;;
11761;SDS011;5938;47.098;15.474;2023-07-28T02:07:37;5.30;;;3.90;;
11761;SDS011;5938;47.098;15.474;2023-07-28T02:11:41;3.33;;;3.13;;
11761;SDS011;5938;47.098;15.474;2023-07-28T02:15:45;4.73;;;3.60;;
11761;SDS011;5938;47.098;15.474;2023-07-28T02:19:49;3.97;;;2.97;;
11761;SDS011;5938;47.098;15.474;2023-07-28T02:23:52;3.33;;;3.00;;
11761;SDS011;5938;47.098;15.474;2023-07-28T02:27:56;3.93;;;3.50;;
11761;SDS011;5938;47.098;15.474;2023-07-28T02:32:01;3.73;;;3.43;;
11761;SDS011;5938;47.098;15.474;2023-07-28T02:36:04;5.17;;;3.10;;
11761;SDS011;5938;47.098;15.474;2023-07-28T02:40:08;3.60;;;3.30;;
11761;SDS011;5938;47.098;15.474;2023-07-28T02:44:12;4.83;;;3.47;;
11761;SDS011;5938;47.098;15.474;2023-07-28T02:48:17;5.07;;;3.30;;
11761;SDS011;5938;47.098;15.474;2023-07-28T02:52:22;5.83;;;3.83;;
11761;SDS011;5938;47.098;15.474;2023-07-28T02:56:26;3.63;;;3.33;;
11761;SDS011;5938;47.098;15.474;2023-07-28T03:00:29;4.43;;;3.53;;
11761;SDS011;5938;47.098;15.474;2023-07-28T03:04:34;4.40;;;4.00;;
11761;SDS011;5938;47.098;15.474;2023-07-28T03:08:40;3.70;;;3.30;;
11761;SDS011;5938;47.098;15.474;2023-07-28T03:12:43;4.63;;;3.77;;
11761;SDS011;5938;47.098;15.474;2023-07-28T03:16:47;4.47;;;3.57;;
11761;SDS011;5938;47.098;15.474;2023-07-28T03:20:51;4.37;;;3.97;;
11761;SDS011;5938;47.098;15.474;2023-07-28T03:24:56;3.93;;;3.53;;
11761;SDS011;5938;47.098;15.474;2023-07-28T03:28:59;5.40;;;3.43;;
11761;SDS011;5938;47.098;15.474;2023-07-28T03:33:03;4.57;;;4.17;;
11761;SDS011;5938;47.098;15.474;2023-07-28T03:37:08;4.93;;;4.23;;
11761;SDS011;5938;47.098;15.474;2023-07-28T03:41:11;4.20;;;3.80;;
11761;SDS011;5938;47.098;15.474;2023-07-28T04:32:40;4.73;;;4.03;;
11761;SDS011;5938;47.098;15.474;2023-07-28T04:36:43;4.20;;;3.80;;
11761;SDS011;5938;47.098;15.474;2023-07-28T04:40:47;5.83;;;4.17;;
11761;SDS011;5938;47.098;15.474;2023-07-28T04:44:50;5.90;;;5.23;;
11761;SDS011;5938;47.098;15.474;2023-07-28T04:48:56;8.17;;;4.57;;
11761;SDS011;5938;47.098;15.474;2023-07-28T04:52:59;5.27;;;4.00;;
11761;SDS011;5938;47.098;15.474;2023-07-28T04:57:03;8.00;;;4.20;;
11761;SDS011;5938;47.098;15.474;2023-07-28T05:01:07;4.90;;;4.40;;
11761;SDS011;5938;47.098;15.474;2023-07-28T05:05:12;6.17;;;4.13;;
11761;SDS011;5938;47.098;15.474;2023-07-28T05:09:17;4.90;;;4.30;;
11761;SDS011;5938;47.098;15.474;2023-07-28T05:13:21;5.87;;;4.17;;
11761;SDS011;5938;47.098;15.474;2023-07-28T05:17:24;5.73;;;5.13;;
11761;SDS011;5938;47.098;15.474;2023-07-28T05:21:29;4.87;;;4.40;;
11761;SDS011;5938;47.098;15.474;2023-07-28T05:25:33;4.57;;;4.17;;
11761;SDS011;5938;47.098;15.474;2023-07-28T05:29:38;4.70;;;4.03;;
11761;SDS011;5938;47.098;15.474;2023-07-28T05:33:41;5.97;;;4.63;;
11761;SDS011;5938;47.098;15.474;2023-07-28T05:37:46;6.40;;;4.93;;
11761;SDS011;5938;47.098;15.474;2023-07-28T05:41:49;5.33;;;3.93;;
11761;SDS011;5938;47.098;15.474;2023-07-28T05:45:53;6.20;;;4.37;;
11761;SDS011;5938;47.098;15.474;2023-07-28T05:50:01;8.13;;;5.13;;
11761;SDS011;5938;47.098;15.474;2023-07-28T05:54:07;5.23;;;4.40;;
11761;SDS011;5938;47.098;15.474;2023-07-28T05:58:10;5.20;;;3.83;;
11761;SDS011;5938;47.098;15.474;2023-07-28T06:02:14;6.17;;;4.40;;
11761;SDS011;5938;47.098;15.474;2023-07-28T06:06:17;4.57;;;4.17;;
11761;SDS011;5938;47.098;15.474;2023-07-28T06:10:22;3.80;;;3.40;;
11761;SDS011;5938;47.098;15.474;2023-07-28T06:14:26;4.73;;;3.80;;
11761;SDS011;5938;47.098;15.474;2023-07-28T06:18:29;5.30;;;4.07;;
11761;SDS011;5938;47.098;15.474;2023-07-28T06:22:33;4.37;;;3.10;;
11761;SDS011;5938;47.098;15.474;2023-07-28T06:26:38;6.43;;;3.70;;
11761;SDS011;5938;47.098;15.474;2023-07-28T06:30:41;3.60;;;2.73;;
11761;SDS011;5938;47.098;15.474;2023-07-28T06:34:45;3.20;;;3.00;;
11761;SDS011;5938;47.098;15.474;2023-07-28T06:38:48;3.50;;;3.20;;
11761;SDS011;5938;47.098;15.474;2023-07-28T06:42:55;3.60;;;3.30;;
11761;SDS011;5938;47.098;15.474;2023-07-28T06:46:58;3.40;;;2.90;;
11761;SDS011;5938;47.098;15.474;2023-07-28T06:51:03;4.23;;;3.47;;
11761;SDS011;5938;47.098;15.474;2023-07-28T06:55:07;3.87;;;3.47;;
11761;SDS011;5938;47.098;15.474;2023-07-28T06:59:13;4.90;;;3.80;;
11761;SDS011;5938;47.098;15.474;2023-07-28T07:03:22;4.50;;;3.27;;
11761;SDS011;5938;47.098;15.474;2023-07-28T07:07:26;4.20;;;3.40;;
11761;SDS011;5938;47.098;15.474;2023-07-28T07:11:31;6.37;;;3.97;;
11761;SDS011;5938;47.098;15.474;2023-07-28T07:15:36;4.17;;;3.27;;
11761;SDS011;5938;47.098;15.474;2023-07-28T07:19:40;5.80;;;4.17;;
11761;SDS011;5938;47.098;15.474;2023-07-28T07:23:43;5.40;;;4.00;;
11761;SDS011;5938;47.098;15.474;2023-07-28T07:27:46;6.70;;;3.77;;
11761;SDS011;5938;47.098;15.474;2023-07-28T07:31:51;6.77;;;4.20;;
11761;SDS011;5938;47.098;15.474;2023-07-28T07:35:57;6.30;;;4.20;;
11761;SDS011;5938;47.098;15.474;2023-07-28T07:40:01;6.40;;;4.03;;
11761;SDS011;5938;47.098;15.474;2023-07-28T07:44:04;3.97;;;3.57;;
11761;SDS011;5938;47.098;15.474;2023-07-28T07:48:09;7.60;;;5.30;;
11761;SDS011;5938;47.098;15.474;2023-07-28T07:52:14;4.47;;;4.07;;
11761;SDS011;5938;47.098;15.474;2023-07-28T07:56:17;4.63;;;3.90;;
11761;SDS011;5938;47.098;15.474;2023-07-28T08:00:20;8.30;;;3.90;;
11761;SDS011;5938;47.098;15.474;2023-07-28T08:04:26;6.83;;;3.70;;
11761;SDS011;5938;47.098;15.474;2023-07-28T08:08:29;7.10;;;4.57;;
11761;SDS011;5938;47.098;15.474;2023-07-28T08:12:33;4.27;;;3.53;;
11761;SDS011;5938;47.098;15.474;2023-07-28T08:16:37;3.90;;;3.50;;
11761;SDS011;5938;47.098;15.474;2023-07-28T08:20:41;3.57;;;2.83;;
11761;SDS011;5938;47.098;15.474;2023-07-28T08:24:45;4.97;;;3.20;;
11761;SDS011;5938;47.098;15.474;2023-07-28T08:28:49;3.40;;;3.10;;
11761;SDS011;5938;47.098;15.474;2023-07-28T08:32:52;3.17;;;2.87;;
11761;SDS011;5938;47.098;15.474;2023-07-28T08:36:57;4.07;;;3.50;;
11761;SDS011;5938;47.098;15.474;2023-07-28T08:41:00;3.27;;;2.97;;
11761;SDS011;5938;47.098;15.474;2023-07-28T08:45:04;3.83;;;3.10;;
11761;SDS011;5938;47.098;15.474;2023-07-28T08:49:09;4.53;;;3.17;;
11761;SDS011;5938;47.098;15.474;2023-07-28T08:53:14;3.60;;;2.50;;
11761;SDS011;5938;47.098;15.474;2023-07-28T08:57:19;4.60;;;2.97;;
11761;SDS011;5938;47.098;15.474;2023-07-28T09:01:23;3.43;;;3.03;;
11761;SDS011;5938;47.098;15.474;2023-07-28T09:05:26;3.20;;;2.83;;
11761;SDS011;5938;47.098;15.474;2023-07-28T09:09:32;3.00;;;2.80;;
11761;SDS011;5938;47.098;15.474;2023-07-28T09:13:36;3.17;;;2.63;;
11761;SDS011;5938;47.098;15.474;2023-07-28T09:17:41;3.20;;;2.90;;
11761;SDS011;5938;47.098;15.474;2023-07-28T09:21:47;3.40;;;3.10;;
11761;SDS011;5938;47.098;15.474;2023-07-28T09:26:04;3.57;;;2.90;;
11761;SDS011;5938;47.098;15.474;2023-07-28T09:30:09;2.97;;;2.33;;
11761;SDS011;5938;47.098;15.474;2023-07-28T09:34:23;2.97;;;2.47;;
11761;SDS011;5938;47.098;15.474;2023-07-28T09:38:27;2.37;;;2.17;;
11761;SDS011;5938;47.098;15.474;2023-07-28T09:42:34;3.53;;;3.07;;
11761;SDS011;5938;47.098;15.474;2023-07-28T09:46:42;2.67;;;2.33;;
11761;SDS011;5938;47.098;15.474;2023-07-28T09:50:52;3.00;;;2.80;;
11761;SDS011;5938;47.098;15.474;2023-07-28T09:54:56;2.57;;;2.37;;
11761;SDS011;5938;47.098;15.474;2023-07-28T09:59:04;2.90;;;2.70;;
11761;SDS011;5938;47.098;15.474;2023-07-28T10:03:13;2.37;;;2.17;;
11761;SDS011;5938;47.098;15.474;2023-07-28T10:07:17;3.60;;;2.37;;
11761;SDS011;5938;47.098;15.474;2023-07-28T10:11:21;3.00;;;2.60;;
11761;SDS011;5938;47.098;15.474;2023-07-28T10:15:31;3.07;;;2.77;;
11761;SDS011;5938;47.098;15.474;2023-07-28T10:19:35;2.70;;;2.50;;
11761;SDS011;5938;47.098;15.474;2023-07-28T10:23:39;5.20;;;3.27;;
11761;SDS011;5938;47.098;15.474;2023-07-28T10:27:44;2.57;;;2.13;;
11761;SDS011;5938;47.098;15.474;2023-07-28T10:31:51;3.03;;;2.73;;
11761;SDS011;5938;47.098;15.474;2023-07-28T10:35:55;2.50;;;1.97;;
11761;SDS011;5938;47.098;15.474;2023-07-28T10:44:30;2.77;;;2.47;;
11761;SDS011;5938;47.098;15.474;2023-07-28T10:48:36;2.73;;;2.43;;
11761;SDS011;5938;47.098;15.474;2023-07-28T10:52:44;2.27;;;2.07;;
11761;SDS011;5938;47.098;15.474;2023-07-28T10:56:48;2.40;;;2.20;;
11761;SDS011;5938;47.098;15.474;2023-07-28T11:00:52;2.60;;;2.40;;
11761;SDS011;5938;47.098;15.474;2023-07-28T11:09:07;3.20;;;2.60;;
11761;SDS011;5938;47.098;15.474;2023-07-28T11:13:12;2.83;;;2.20;;
11761;SDS011;5938;47.098;15.474;2023-07-28T11:17:37;3.67;;;2.20;;
11761;SDS011;5938;47.098;15.474;2023-07-28T11:21:47;2.70;;;2.50;;
11761;SDS011;5938;47.098;15.474;2023-07-28T11:25:54;3.70;;;2.50;;
11761;SDS011;5938;47.098;15.474;2023-07-28T11:29:57;2.70;;;2.50;;
11761;SDS011;5938;47.098;15.474;2023-07-28T11:34:01;2.77;;;2.57;;
11761;SDS011;5938;47.098;15.474;2023-07-28T11:38:06;3.30;;;1.97;;
11761;SDS011;5938;47.098;15.474;2023-07-28T11:42:14;2.50;;;2.30;;
11761;SDS011;5938;47.098;15.474;2023-07-28T11:46:31;2.27;;;2.07;;
11761;SDS011;5938;47.098;15.474;2023-07-28T11:50:37;2.97;;;2.77;;
11761;SDS011;5938;47.098;15.474;2023-07-28T11:54:43;2.60;;;2.40;;
11761;SDS011;5938;47.098;15.474;2023-07-28T11:58:51;2.00;;;1.90;;
11761;SDS011;5938;47.098;15.474;2023-07-28T12:03:02;2.67;;;2.47;;
11761;SDS011;5938;47.098;15.474;2023-07-28T12:07:08;2.60;;;2.40;;
11761;SDS011;5938;47.098;15.474;2023-07-28T12:11:15;2.63;;;2.43;;
11761;SDS011;5938;47.098;15.474;2023-07-28T12:15:22;2.10;;;2.00;;
11761;SDS011;5938;47.098;15.474;2023-07-28T12:19:31;2.20;;;1.97;;
11761;SDS011;5938;47.098;15.474;2023-07-28T12:23:43;2.47;;;2.27;;
11761;SDS011;5938;47.098;15.474;2023-07-28T12:27:56;2.67;;;2.43;;
11761;SDS011;5938;47.098;15.474;2023-07-28T12:31:59;1.90;;;1.80;;
11761;SDS011;5938;47.098;15.474;2023-07-28T12:36:03;2.70;;;2.50;;
11761;SDS011;5938;47.098;15.474;2023-07-28T12:40:11;2.90;;;2.70;;
11761;SDS011;5938;47.098;15.474;2023-07-28T12:44:20;2.43;;;2.30;;
11761;SDS011;5938;47.098;15.474;2023-07-28T12:48:49;3.23;;;2.87;;
11761;SDS011;5938;47.098;15.474;2023-07-28T12:52:52;2.70;;;2.50;;
11761;SDS011;5938;47.098;15.474;2023-07-28T12:56:59;2.33;;;2.13;;
11761;SDS011;5938;47.098;15.474;2023-07-28T13:01:08;3.00;;;2.70;;
11761;SDS011;5938;47.098;15.474;2023-07-28T13:05:14;2.70;;;2.50;;
11761;SDS011;5938;47.098;15.474;2023-07-28T13:09:24;2.50;;;2.30;;
11761;SDS011;5938;47.098;15.474;2023-07-28T13:13:32;3.00;;;2.80;;
11761;SDS011;5938;47.098;15.474;2023-07-28T13:17:37;3.20;;;2.90;;
11761;SDS011;5938;47.098;15.474;2023-07-28T13:21:40;2.10;;;2.00;;
11761;SDS011;5938;47.098;15.474;2023-07-28T13:25:44;2.93;;;2.73;;
11761;SDS011;5938;47.098;15.474;2023-07-28T13:29:47;3.00;;;2.80;;
11761;SDS011;5938;47.098;15.474;2023-07-28T13:33:52;3.50;;;3.20;;
11761;SDS011;5938;47.098;15.474;2023-07-28T13:37:59;2.67;;;2.47;;
11761;SDS011;5938;47.098;15.474;2023-07-28T13:42:03;2.43;;;2.27;;
11761;SDS011;5938;47.098;15.474;2023-07-28T13:46:07;2.67;;;2.47;;
11761;SDS011;5938;47.098;15.474;2023-07-28T13:50:13;2.40;;;2.20;;
11761;SDS011;5938;47.098;15.474;2023-07-28T13:54:16;2.57;;;2.37;;
11761;SDS011;5938;47.098;15.474;2023-07-28T13:58:23;3.10;;;2.80;;
11761;SDS011;5938;47.098;15.474;2023-07-28T14:02:27;3.33;;;3.00;;
11761;SDS011;5938;47.098;15.474;2023-07-28T14:06:32;2.77;;;2.57;;
11761;SDS011;5938;47.098;15.474;2023-07-28T14:10:36;2.53;;;2.33;;
11761;SDS011;5938;47.098;15.474;2023-07-28T14:14:40;2.70;;;2.50;;
11761;SDS011;5938;47.098;15.474;2023-07-28T14:18:43;2.13;;;2.03;;
11761;SDS011;5938;47.098;15.474;2023-07-28T14:22:50;2.50;;;2.30;;
11761;SDS011;5938;47.098;15.474;2023-07-28T14:26:53;3.90;;;2.77;;
11761;SDS011;5938;47.098;15.474;2023-07-28T14:30:59;2.97;;;2.77;;
11761;SDS011;5938;47.098;15.474;2023-07-28T14:35:03;2.40;;;2.30;;
11761;SDS011;5938;47.098;15.474;2023-07-28T14:39:08;4.23;;;2.37;;
11761;SDS011;5938;47.098;15.474;2023-07-28T14:43:12;3.17;;;2.97;;
11761;SDS011;5938;47.098;15.474;2023-07-28T14:47:16;2.60;;;2.40;;
11761;SDS011;5938;47.098;15.474;2023-07-28T14:51:19;2.20;;;2.10;;
11761;SDS011;5938;47.098;15.474;2023-07-28T14:55:24;2.50;;;2.40;;
11761;SDS011;5938;47.098;15.474;2023-07-28T14:59:28;2.53;;;2.43;;
11761;SDS011;5938;47.098;15.474;2023-07-28T15:03:31;2.50;;;2.30;;
11761;SDS011;5938;47.098;15.474;2023-07-28T15:07:35;4.20;;;2.43;;
11761;SDS011;5938;47.098;15.474;2023-07-28T15:11:40;2.63;;;2.43;;
11761;SDS011;5938;47.098;15.474;2023-07-28T15:15:43;2.63;;;2.43;;
11761;SDS011;5938;47.098;15.474;2023-07-28T15:19:47;2.40;;;2.20;;
11761;SDS011;5938;47.098;15.474;2023-07-28T15:23:53;2.70;;;2.50;;
11761;SDS011;5938;47.098;15.474;2023-07-28T15:27:58;4.30;;;2.30;;
11761;SDS011;5938;47.098;15.474;2023-07-28T15:32:02;2.97;;;2.77;;
11761;SDS011;5938;47.098;15.474;2023-07-28T15:36:07;3.47;;;3.17;;
11761;SDS011;5938;47.098;15.474;2023-07-28T15:40:11;3.13;;;2.93;;
11761;SDS011;5938;47.098;15.474;2023-07-28T15:44:16;3.70;;;2.70;;
11761;SDS011;5938;47.098;15.474;2023-07-28T15:48:19;2.50;;;2.30;;
11761;SDS011;5938;47.098;15.474;2023-07-28T15:52:24;2.40;;;2.30;;
11761;SDS011;5938;47.098;15.474;2023-07-28T15:56:27;3.30;;;3.00;;
11761;SDS011;5938;47.098;15.474;2023-07-28T16:00:33;2.70;;;2.50;;
11761;SDS011;5938;47.098;15.474;2023-07-28T16:04:37;3.13;;;2.83;;
11761;SDS011;5938;47.098;15.474;2023-07-28T16:08:42;2.90;;;2.70;;
11761;SDS011;5938;47.098;15.474;2023-07-28T16:12:46;3.10;;;2.90;;
11761;SDS011;5938;47.098;15.474;2023-07-28T16:16:51;2.70;;;2.50;;
11761;SDS011;5938;47.098;15.474;2023-07-28T16:20:56;3.27;;;2.70;;
11761;SDS011;5938;47.098;15.474;2023-07-28T16:25:07;4.90;;;3.40;;
11761;SDS011;5938;47.098;15.474;2023-07-28T16:29:11;4.00;;;3.10;;
11761;SDS011;5938;47.098;15.474;2023-07-28T16:33:16;3.60;;;3.30;;
11761;SDS011;5938;47.098;15.474;2023-07-28T16:37:20;2.43;;;2.23;;
11761;SDS011;5938;47.098;15.474;2023-07-28T16:41:23;3.80;;;3.40;;
11761;SDS011;5938;47.098;15.474;2023-07-28T16:45:27;3.40;;;3.10;;
11761;SDS011;5938;47.098;15.474;2023-07-28T16:49:32;3.50;;;3.20;;
11761;SDS011;5938;47.098;15.474;2023-07-28T16:57:42;3.10;;;2.77;;
11761;SDS011;5938;47.098;15.474;2023-07-28T17:01:46;3.70;;;3.40;;
11761;SDS011;5938;47.098;15.474;2023-07-28T17:05:52;6.50;;;3.07;;
11761;SDS011;5938;47.098;15.474;2023-07-28T17:09:55;4.30;;;3.53;;
11761;SDS011;5938;47.098;15.474;2023-07-28T17:13:59;5.40;;;3.27;;
11761;SDS011;5938;47.098;15.474;2023-07-28T17:18:03;3.17;;;2.87;;
11761;SDS011;5938;47.098;15.474;2023-07-28T17:22:08;3.77;;;3.47;;
11761;SDS011;5938;47.098;15.474;2023-07-28T17:26:12;3.50;;;3.20;;
11761;SDS011;5938;47.098;15.474;2023-07-28T17:30:17;4.60;;;3.40;;
11761;SDS011;5938;47.098;15.474;2023-07-28T17:34:21;3.40;;;3.10;;
11761;SDS011;5938;47.098;15.474;2023-07-28T17:38:26;3.83;;;3.10;;
11761;SDS011;5938;47.098;15.474;2023-07-28T17:42:31;5.03;;;3.60;;
11761;SDS011;5938;47.098;15.474;2023-07-28T17:46:35;4.07;;;3.10;;
11761;SDS011;5938;47.098;15.474;2023-07-28T17:50:40;3.33;;;2.97;;
11761;SDS011;5938;47.098;15.474;2023-07-28T17:54:45;3.10;;;2.50;;
11761;SDS011;5938;47.098;15.474;2023-07-28T17:58:51;3.27;;;2.97;;
11761;SDS011;5938;47.098;15.474;2023-07-28T18:02:59;5.23;;;3.60;;
11761;SDS011;5938;47.098;15.474;2023-07-28T18:07:05;4.63;;;3.67;;
11761;SDS011;5938;47.098;15.474;2023-07-28T18:11:13;4.13;;;3.70;;
11761;SDS011;5938;47.098;15.474;2023-07-28T18:15:21;4.17;;;3.77;;
11761;SDS011;5938;47.098;15.474;2023-07-28T18:19:26;5.30;;;4.23;;
11761;SDS011;5938;47.098;15.474;2023-07-28T18:23:39;4.93;;;3.67;;
11761;SDS011;5938;47.098;15.474;2023-07-28T18:27:50;4.80;;;4.00;;
11761;SDS011;5938;47.098;15.474;2023-07-28T18:31:56;5.40;;;3.90;;
11761;SDS011;5938;47.098;15.474;2023-07-28T18:36:04;5.27;;;4.50;;
11761;SDS011;5938;47.098;15.474;2023-07-28T18:40:11;5.30;;;4.50;;
11761;SDS011;5938;47.098;15.474;2023-07-28T18:44:21;4.93;;;4.43;;
11761;SDS011;5938;47.098;15.474;2023-07-28T18:48:35;7.53;;;5.50;;
11761;SDS011;5938;47.098;15.474;2023-07-28T18:53:04;5.83;;;5.33;;
11761;SDS011;5938;47.098;15.474;2023-07-28T18:57:09;5.03;;;4.30;;
11761;SDS011;5938;47.098;15.474;2023-07-28T19:01:15;5.53;;;4.97;;
11761;SDS011;5938;47.098;15.474;2023-07-28T19:05:22;5.30;;;4.63;;
11761;SDS011;5938;47.098;15.474;2023-07-28T19:09:29;6.03;;;4.67;;
11761;SDS011;5938;47.098;15.474;2023-07-28T19:13:34;6.37;;;4.73;;
11761;SDS011;5938;47.098;15.474;2023-07-28T19:17:43;8.80;;;4.90;;
11761;SDS011;5938;47.098;15.474;2023-07-28T19:21:48;4.97;;;4.47;;
11761;SDS011;5938;47.098;15.474;2023-07-28T19:25:54;6.63;;;5.30;;
11761;SDS011;5938;47.098;15.474;2023-07-28T19:29:59;6.73;;;6.03;;
11761;SDS011;5938;47.098;15.474;2023-07-28T19:34:04;5.33;;;4.80;;
11761;SDS011;5938;47.098;15.474;2023-07-28T19:38:08;5.77;;;5.03;;
11761;SDS011;5938;47.098;15.474;2023-07-28T19:42:17;5.20;;;4.57;;
11761;SDS011;5938;47.098;15.474;2023-07-28T19:46:23;5.37;;;4.87;;
11761;SDS011;5938;47.098;15.474;2023-07-28T19:50:32;4.23;;;3.93;;
11761;SDS011;5938;47.098;15.474;2023-07-28T19:54:47;6.13;;;4.77;;
11761;SDS011;5938;47.098;15.474;2023-07-28T19:58:51;5.27;;;4.77;;
11761;SDS011;5938;47.098;15.474;2023-07-28T20:02:54;6.30;;;5.40;;
11761;SDS011;5938;47.098;15.474;2023-07-28T20:07:01;5.17;;;4.73;;
11761;SDS011;5938;47.098;15.474;2023-07-28T20:11:10;4.50;;;4.10;;
11761;SDS011;5938;47.098;15.474;2023-07-28T20:15:15;6.10;;;5.60;;
11761;SDS011;5938;47.098;15.474;2023-07-28T20:19:21;5.60;;;4.63;;
11761;SDS011;5938;47.098;15.474;2023-07-28T20:23:26;7.27;;;4.80;;
11761;SDS011;5938;47.098;15.474;2023-07-28T20:27:33;5.73;;;5.13;;
11761;SDS011;5938;47.098;15.474;2023-07-28T20:31:47;5.70;;;5.10;;
11761;SDS011;5938;47.098;15.474;2023-07-28T20:35:52;6.63;;;5.53;;
11761;SDS011;5938;47.098;15.474;2023-07-28T20:39:58;4.90;;;4.50;;
11761;SDS011;5938;47.098;15.474;2023-07-28T20:44:02;6.50;;;5.60;;
11761;SDS011;5938;47.098;15.474;2023-07-28T20:48:07;6.07;;;4.50;;
11761;SDS011;5938;47.098;15.474;2023-07-28T20:52:28;7.43;;;5.37;;
11761;SDS011;5938;47.098;15.474;2023-07-28T20:56:35;6.03;;;5.47;;
11761;SDS011;5938;47.098;15.474;2023-07-28T21:00:39;6.23;;;5.63;;
11761;SDS011;5938;47.098;15.474;2023-07-28T21:04:42;6.10;;;5.40;;
11761;SDS011;5938;47.098;15.474;2023-07-28T21:08:46;5.37;;;4.87;;
11761;SDS011;5938;47.098;15.474;2023-07-28T21:12:50;5.33;;;4.90;;
11761;SDS011;5938;47.098;15.474;2023-07-28T21:16:54;6.20;;;5.00;;
11761;SDS011;5938;47.098;15.474;2023-07-28T21:20:57;5.90;;;5.00;;
11761;SDS011;5938;47.098;15.474;2023-07-28T21:25:01;5.80;;;5.30;;
11761;SDS011;5938;47.098;15.474;2023-07-28T21:29:06;5.37;;;4.90;;
11761;SDS011;5938;47.098;15.474;2023-07-28T21:33:09;6.40;;;5.67;;
11761;SDS011;5938;47.098;15.474;2023-07-28T21:37:13;6.23;;;5.63;;
11761;SDS011;5938;47.098;15.474;2023-07-28T21:41:16;5.30;;;4.80;;
11761;SDS011;5938;47.098;15.474;2023-07-28T21:45:22;7.17;;;4.93;;
11761;SDS011;5938;47.098;15.474;2023-07-28T21:49:25;5.50;;;4.90;;
11761;SDS011;5938;47.098;15.474;2023-07-28T21:53:29;4.80;;;4.50;;
11761;SDS011;5938;47.098;15.474;2023-07-28T21:57:33;5.87;;;5.27;;
11761;SDS011;5938;47.098;15.474;2023-07-28T22:01:44;5.80;;;5.23;;
11761;SDS011;5938;47.098;15.474;2023-07-28T22:05:47;6.53;;;5.00;;
11761;SDS011;5938;47.098;15.474;2023-07-28T22:14:13;5.40;;;4.90;;
11761;SDS011;5938;47.098;15.474;2023-07-28T22:18:19;7.20;;;4.63;;
11761;SDS011;5938;47.098;15.474;2023-07-28T22:22:24;5.20;;;4.40;;
11761;SDS011;5938;47.098;15.474;2023-07-28T22:26:27;5.53;;;4.80;;
11761;SDS011;5938;47.098;15.474;2023-07-28T22:30:31;5.90;;;5.40;;
11761;SDS011;5938;47.098;15.474;2023-07-28T22:34:36;5.87;;;5.30;;
11761;SDS011;5938;47.098;15.474;2023-07-28T22:38:39;5.13;;;4.63;;
11761;SDS011;5938;47.098;15.474;2023-07-28T22:42:42;6.00;;;5.40;;
11761;SDS011;5938;47.098;15.474;2023-07-28T22:46:46;7.10;;;5.43;;
11761;SDS011;5938;47.098;15.474;2023-07-28T22:51:29;5.70;;;5.20;;
11761;SDS011;5938;47.098;15.474;2023-07-28T22:55:33;7.00;;;4.60;;
11761;SDS011;5938;47.098;15.474;2023-07-28T22:59:36;6.73;;;6.13;;
11761;SDS011;5938;47.098;15.474;2023-07-28T23:03:40;5.80;;;5.20;;
11761;SDS011;5938;47.098;15.474;2023-07-28T23:07:46;6.63;;;6.00;;
11761;SDS011;5938;47.098;15.474;2023-07-28T23:11:50;5.77;;;5.20;;
11761;SDS011;5938;47.098;15.474;2023-07-28T23:15:55;5.60;;;5.10;;
11761;SDS011;5938;47.098;15.474;2023-07-28T23:20:05;7.10;;;5.20;;
11761;SDS011;5938;47.098;15.474;2023-07-28T23:24:12;6.20;;;5.50;;
11761;SDS011;5938;47.098;15.474;2023-07-28T23:28:16;6.43;;;5.40;;
11761;SDS011;5938;47.098;15.474;2023-07-28T23:32:19;6.60;;;5.63;;
11761;SDS011;5938;47.098;15.474;2023-07-28T23:36:23;7.40;;;5.00;;
11761;SDS011;5938;47.098;15.474;2023-07-28T23:40:29;6.50;;;4.83;;
11761;SDS011;5938;47.098;15.474;2023-07-28T23:44:33;5.80;;;5.30;;
11761;SDS011;5938;47.098;15.474;2023-07-28T23:48:38;5.47;;;4.97;;
11761;SDS011;5938;47.098;15.474;2023-07-28T23:52:42;4.73;;;4.33;;
11761;SDS011;5938;47.098;15.474;2023-07-28T23:56:47;7.50;;;6.50;;
